ADDS METAR Data

Data at: 2307 UTC 15 Aug 2018

METAR for:KLGA (New York/La Guardia, NY, US)
Text:KLGA 152251Z 26013KT 10SM FEW065 SCT200 BKN250 32/17 A2990 RMK AO2 SLP126 T03170172
Temperature: 31.7°C ( 89°F)
Dewpoint: 17.2°C ( 63°F) [RH = 42%]
Pressure (altimeter):29.90 inches Hg (1012.6 mb) [Sea level pressure: 1012.6 mb]
Winds:from the W (260 degrees) at 15 MPH (13 knots; 6.7 m/s)
Visibility:10 or more sm (16+ km)
Ceiling:25000 feet AGL
Clouds: few clouds at 6500 feet AGL, scattered clouds at 20000 feet AGL, broken clouds at 25000 feet AGL